Terminal Aerodrome Forecast
Issued by NWS

Current Version | Previous Version | Text Only | Print | Product List | Glossary On
Versions: 1 2 3 4 5 6 7 8 9 10 11 12 13 14 15 16 17 18 19
000
FTUS42 KGSP 251422 CCA
TAFGMU
TAF COR
KGMU 251422Z 2514/2612 20007KT P6SM -RA BKN003 OVC100
     FM251600 21006KT 5SM SHRA SCT012
     FM251800 20006KT 4SM -SHRA VCTS OVC010CB
     FM252100 24006KT 6SM -SHRA OVC008 PROB30 2523/2601 4SM TSRA
      OVC008CB
     FM260100 18004KT P6SM BKN250 WS020/25035KT=

USA.gov is the U.S. government's official web portal to all federal, state and local government web resources and services.